PHKONSTU

Guest
Details From PHKO - Kona Intl At Keahole
To NSTU - Pago Pago Intl
Flight Number -
Tags Generated
Created
Modified
Stats Distance 2,223 nm / 4,118 km
Max Altitude 0 ft / 0 m
Waypoints 3
Social Downloads 1
Likes 0
Share VATSIM

Download

Looking for another format? Having issues loading an existing format? Contact us
Advertisement - Login to hide

Notes

Generated

Route

PHKO TUT NSTU

ID Type Via Altitude Latitude Longitude Leg Dist Tot Dist Heading (true) Name
O PHKO APT - 0 ft / 0 m 19.75386˚ -156.04429˚ - 0 nm - -
TUT VOR - 0 ft / 0 m -14.33258˚ -170.70828˚ 2222 nm 2222 nm 204° / 203° PAGO PAGO VORTAC
O NSTU APT - 0 ft / 0 m -14.32694˚ -170.71321˚ 0 nm 2223 nm 320° / 320° Pago Pago

Altitude Profile

Advertisement - Login to hide

Weather


0- 5 10 15 20 25 30 35+ Temperature / ° C

Clouds and Precipitation
Forecast for 2018-05-24 00:00 UTC. Updated 2 hours ago

Ground ~20,000 ft ~40,000 ft Winds

PHKO

Details ICAO PHKO (KOA)
Name Kona Intl At Keahole
Region USA (Hawaii)
Timezone Pacific/Honolulu (UTC-10.0)
Stats Elevation 45 ft / 14 m (AMSL)
Location 19.739343° -156.045756°
Runways 1
Magnetic Variation 9.422° E

METAR

PHKO 240053Z 21010KT 10SM SCT045 29/19 A2994

Decode

TAF

TAF PHKO 232332Z 2400/2424 21010KT P6SM SCT040 BKN060 FM240400 15008KT P6SM SCT060 FM241900 21010KT P6SM SCT040 BKN060

Decode

Departure Runways

ID Width Length Bearing (true) Bearing (mag) Surface Threshold Offset Overrun Length
17 150 ft / 46 m 11,461 ft / 3,493 m 184.77° 175.35° Asphalt 407 ft / 124 m 0 ft / 0 m
35 150 ft / 46 m 11,461 ft / 3,493 m 4.77° 355.35° Asphalt 0 ft / 0 m 404 ft / 123 m

NSTU

Details ICAO NSTU (PPG)
Name Pago Pago
Region American Samoa
Timezone Unknown (UTC+0.0)
Stats Elevation 0 ft / 0 m (AMSL)
Location -14.330060° -170.710244°
Runways 2
Magnetic Variation 11.790° E

METAR

NSTU 240050Z 10008KT 12SM FEW023 31/26 A2983 RMK SLP102 T03110263

Decode

TAF

TAF NSTU 232332Z 2400/2424 09010KT P6SM SCT020 SCT040

Decode

Destination Runways

ID Width Length Bearing (true) Bearing (mag) Surface Threshold Offset Overrun Length
05 151 ft / 46 m 10,007 ft / 3,050 m 60.00° 48.21° Asphalt 1,001 ft / 305 m 413 ft / 126 m
08 98 ft / 30 m 3,907 ft / 1,191 m 89.93° 78.14° Asphalt 0 ft / 0 m 371 ft / 113 m
23 151 ft / 46 m 10,007 ft / 3,050 m 240.00° 228.21° Asphalt 784 ft / 239 m 226 ft / 69 m
26 98 ft / 30 m 3,907 ft / 1,191 m 269.93° 258.14° Asphalt 112 ft / 34 m 0 ft / 0 m

Approach Navaids

Runway Type Ident Frequency Range Bearing (true) Bearing (mag) Slope Elevation
05 Localiser ITUT 110.30 MHz 18 nm / 33 km 58.08° 46.29° - 9 ft / 3 m (AMSL)
05 Glidescope ITUT 110.30 MHz 10 nm / 19 km 60.00° 48.21° 3.25° 28 ft / 9 m (AMSL)
05 DME ITUT 110.30 MHz 18 nm / 33 km - - - 9 ft / 3 m (AMSL)

Popular Alternatives